sensor_id;sensor_type;location;lat;lon;timestamp;pressure;altitude;pressure_sealevel;temperature;humidity
62978;BME280;49073;42.352;23.808;2023-06-14T00:02:48;94429.28;;;17.02;100.00
62978;BME280;49073;42.352;23.808;2023-06-14T00:05:50;94430.53;;;16.90;100.00
62978;BME280;49073;42.352;23.808;2023-06-14T00:08:50;94426.00;;;16.83;100.00
62978;BME280;49073;42.352;23.808;2023-06-14T00:11:51;94430.59;;;16.83;100.00
62978;BME280;49073;42.352;23.808;2023-06-14T00:14:52;94425.66;;;16.78;100.00
62978;BME280;49073;42.352;23.808;2023-06-14T00:17:53;94430.38;;;16.66;100.00
62978;BME280;49073;42.352;23.808;2023-06-14T00:20:56;94428.13;;;16.61;100.00
62978;BME280;49073;42.352;23.808;2023-06-14T00:23:58;94428.22;;;16.50;100.00
62978;BME280;49073;42.352;23.808;2023-06-14T00:26:59;94427.09;;;16.44;100.00
62978;BME280;49073;42.352;23.808;2023-06-14T00:30:00;94424.13;;;16.35;100.00
62978;BME280;49073;42.352;23.808;2023-06-14T00:33:01;94424.47;;;16.37;100.00
62978;BME280;49073;42.352;23.808;2023-06-14T00:36:02;94425.50;;;16.50;100.00
62978;BME280;49073;42.352;23.808;2023-06-14T00:39:02;94412.44;;;16.52;100.00
62978;BME280;49073;42.352;23.808;2023-06-14T00:42:04;94418.16;;;16.58;100.00
62978;BME280;49073;42.352;23.808;2023-06-14T00:45:05;94411.63;;;16.59;100.00
62978;BME280;49073;42.352;23.808;2023-06-14T00:48:06;94410.38;;;16.67;100.00
62978;BME280;49073;42.352;23.808;2023-06-14T00:51:07;94411.47;;;16.73;100.00
62978;BME280;49073;42.352;23.808;2023-06-14T00:54:09;94409.06;;;16.83;100.00
62978;BME280;49073;42.352;23.808;2023-06-14T00:57:10;94414.13;;;16.77;100.00
62978;BME280;49073;42.352;23.808;2023-06-14T01:00:12;94400.28;;;16.75;100.00
62978;BME280;49073;42.352;23.808;2023-06-14T01:03:13;94408.50;;;16.64;100.00
62978;BME280;49073;42.352;23.808;2023-06-14T01:16:02;94404.56;;;16.72;100.00
62978;BME280;49073;42.352;23.808;2023-06-14T01:19:03;94403.78;;;16.72;100.00
62978;BME280;49073;42.352;23.808;2023-06-14T01:22:05;94398.75;;;16.78;100.00
62978;BME280;49073;42.352;23.808;2023-06-14T01:25:06;94395.75;;;16.68;100.00
62978;BME280;49073;42.352;23.808;2023-06-14T01:28:07;94400.78;;;16.66;100.00
62978;BME280;49073;42.352;23.808;2023-06-14T01:31:11;94395.00;;;16.68;100.00
62978;BME280;49073;42.352;23.808;2023-06-14T01:34:12;94398.47;;;16.68;100.00
62978;BME280;49073;42.352;23.808;2023-06-14T01:37:13;94400.00;;;16.66;100.00
62978;BME280;49073;42.352;23.808;2023-06-14T01:40:15;94396.41;;;16.80;100.00
62978;BME280;49073;42.352;23.808;2023-06-14T01:43:16;94398.34;;;16.79;100.00
62978;BME280;49073;42.352;23.808;2023-06-14T01:46:19;94399.31;;;17.00;100.00
62978;BME280;49073;42.352;23.808;2023-06-14T01:49:20;94401.59;;;17.01;100.00
62978;BME280;49073;42.352;23.808;2023-06-14T01:52:21;94395.03;;;17.02;100.00
62978;BME280;49073;42.352;23.808;2023-06-14T01:55:22;94405.00;;;17.06;100.00
62978;BME280;49073;42.352;23.808;2023-06-14T01:58:24;94403.47;;;17.05;100.00
62978;BME280;49073;42.352;23.808;2023-06-14T02:01:26;94408.97;;;16.94;100.00
62978;BME280;49073;42.352;23.808;2023-06-14T02:04:27;94407.88;;;16.87;100.00
62978;BME280;49073;42.352;23.808;2023-06-14T02:07:27;94406.66;;;16.92;100.00
62978;BME280;49073;42.352;23.808;2023-06-14T02:10:29;94407.53;;;16.82;100.00
62978;BME280;49073;42.352;23.808;2023-06-14T02:13:29;94403.91;;;16.61;100.00
62978;BME280;49073;42.352;23.808;2023-06-14T02:16:30;94413.94;;;16.57;100.00
62978;BME280;49073;42.352;23.808;2023-06-14T02:19:32;94410.91;;;16.51;100.00
62978;BME280;49073;42.352;23.808;2023-06-14T02:22:33;94413.97;;;16.53;100.00
62978;BME280;49073;42.352;23.808;2023-06-14T02:25:33;94403.94;;;16.57;100.00
62978;BME280;49073;42.352;23.808;2023-06-14T02:28:35;94410.84;;;16.58;100.00
62978;BME280;49073;42.352;23.808;2023-06-14T02:31:36;94413.88;;;16.64;100.00
62978;BME280;49073;42.352;23.808;2023-06-14T02:34:36;94409.59;;;16.70;100.00
62978;BME280;49073;42.352;23.808;2023-06-14T02:37:41;94411.84;;;16.72;100.00
62978;BME280;49073;42.352;23.808;2023-06-14T02:40:42;94413.03;;;16.71;100.00
62978;BME280;49073;42.352;23.808;2023-06-14T02:43:45;94412.66;;;16.69;100.00
62978;BME280;49073;42.352;23.808;2023-06-14T02:46:49;94416.06;;;16.73;100.00
62978;BME280;49073;42.352;23.808;2023-06-14T02:49:50;94423.19;;;16.94;100.00
62978;BME280;49073;42.352;23.808;2023-06-14T02:52:51;94424.75;;;16.92;100.00
62978;BME280;49073;42.352;23.808;2023-06-14T02:55:52;94427.91;;;16.83;100.00
62978;BME280;49073;42.352;23.808;2023-06-14T02:58:55;94426.41;;;16.78;100.00
62978;BME280;49073;42.352;23.808;2023-06-14T03:01:56;94430.69;;;16.72;100.00
62978;BME280;49073;42.352;23.808;2023-06-14T03:04:56;94435.28;;;16.75;100.00
62978;BME280;49073;42.352;23.808;2023-06-14T03:08:02;94432.94;;;16.77;100.00
62978;BME280;49073;42.352;23.808;2023-06-14T03:11:02;94424.84;;;16.81;100.00
62978;BME280;49073;42.352;23.808;2023-06-14T03:14:03;94428.72;;;16.80;100.00
62978;BME280;49073;42.352;23.808;2023-06-14T03:17:07;94437.56;;;16.80;100.00
62978;BME280;49073;42.352;23.808;2023-06-14T03:20:09;94430.66;;;16.79;100.00
62978;BME280;49073;42.352;23.808;2023-06-14T03:23:10;94443.69;;;16.81;100.00
62978;BME280;49073;42.352;23.808;2023-06-14T03:26:10;94444.50;;;16.78;100.00
62978;BME280;49073;42.352;23.808;2023-06-14T03:29:15;94437.50;;;16.84;100.00
62978;BME280;49073;42.352;23.808;2023-06-14T03:32:16;94443.69;;;16.81;100.00
62978;BME280;49073;42.352;23.808;2023-06-14T03:35:17;94443.69;;;16.81;100.00
62978;BME280;49073;42.352;23.808;2023-06-14T03:38:17;94449.06;;;16.81;100.00
62978;BME280;49073;42.352;23.808;2023-06-14T03:41:18;94441.34;;;16.86;100.00
62978;BME280;49073;42.352;23.808;2023-06-14T03:44:19;94449.81;;;16.85;100.00
62978;BME280;49073;42.352;23.808;2023-06-14T03:47:20;94444.34;;;16.92;100.00
62978;BME280;49073;42.352;23.808;2023-06-14T03:50:20;94447.03;;;16.92;100.00
62978;BME280;49073;42.352;23.808;2023-06-14T03:53:21;94446.38;;;16.84;100.00
62978;BME280;49073;42.352;23.808;2023-06-14T03:56:23;94450.59;;;16.85;100.00
62978;BME280;49073;42.352;23.808;2023-06-14T03:59:26;94451.31;;;16.90;100.00
62978;BME280;49073;42.352;23.808;2023-06-14T04:02:27;94452.84;;;16.91;100.00
62978;BME280;49073;42.352;23.808;2023-06-14T04:05:29;94449.72;;;16.92;100.00
62978;BME280;49073;42.352;23.808;2023-06-14T04:08:29;94449.78;;;16.89;100.00
62978;BME280;49073;42.352;23.808;2023-06-14T04:11:30;94458.97;;;16.91;100.00
62978;BME280;49073;42.352;23.808;2023-06-14T04:14:31;94458.94;;;16.95;100.00
62978;BME280;49073;42.352;23.808;2023-06-14T04:17:36;94466.28;;;16.91;100.00
62978;BME280;49073;42.352;23.808;2023-06-14T04:20:37;94458.25;;;16.87;100.00
62978;BME280;49073;42.352;23.808;2023-06-14T04:23:37;94466.66;;;16.93;100.00
62978;BME280;49073;42.352;23.808;2023-06-14T04:26:41;94467.28;;;17.08;100.00
62978;BME280;49073;42.352;23.808;2023-06-14T04:29:44;94469.63;;;17.06;100.00
62978;BME280;49073;42.352;23.808;2023-06-14T04:32:51;94475.81;;;17.02;100.00
62978;BME280;49073;42.352;23.808;2023-06-14T04:35:53;94477.34;;;17.04;100.00
62978;BME280;49073;42.352;23.808;2023-06-14T04:38:56;94487.38;;;16.99;100.00
62978;BME280;49073;42.352;23.808;2023-06-14T04:41:59;94476.59;;;17.03;100.00
62978;BME280;49073;42.352;23.808;2023-06-14T04:45:00;94474.22;;;17.09;100.00
62978;BME280;49073;42.352;23.808;2023-06-14T04:48:02;94466.94;;;17.06;100.00
62978;BME280;49073;42.352;23.808;2023-06-14T04:51:03;94473.53;;;17.01;100.00
62978;BME280;49073;42.352;23.808;2023-06-14T04:54:04;94476.59;;;16.99;100.00
62978;BME280;49073;42.352;23.808;2023-06-14T04:57:05;94487.91;;;16.83;100.00
62978;BME280;49073;42.352;23.808;2023-06-14T05:00:06;94496.06;;;16.72;100.00
62978;BME280;49073;42.352;23.808;2023-06-14T05:03:06;94494.47;;;16.75;100.00
62978;BME280;49073;42.352;23.808;2023-06-14T05:06:07;94492.94;;;16.74;100.00
62978;BME280;49073;42.352;23.808;2023-06-14T05:09:08;94495.31;;;16.68;100.00
62978;BME280;49073;42.352;23.808;2023-06-14T05:12:08;94500.22;;;16.77;100.00
62978;BME280;49073;42.352;23.808;2023-06-14T05:15:10;94502.19;;;16.73;100.00
62978;BME280;49073;42.352;23.808;2023-06-14T05:18:11;94506.22;;;16.96;100.00
62978;BME280;49073;42.352;23.808;2023-06-14T05:21:13;94502.97;;;16.73;100.00
62978;BME280;49073;42.352;23.808;2023-06-14T05:24:17;94509.00;;;16.85;100.00
62978;BME280;49073;42.352;23.808;2023-06-14T05:27:18;94511.97;;;17.01;100.00
62978;BME280;49073;42.352;23.808;2023-06-14T05:30:18;94508.91;;;16.99;100.00
62978;BME280;49073;42.352;23.808;2023-06-14T05:33:19;94508.44;;;17.08;100.00
62978;BME280;49073;42.352;23.808;2023-06-14T05:36:20;94510.13;;;17.33;100.00
62978;BME280;49073;42.352;23.808;2023-06-14T05:39:21;94508.00;;;17.52;100.00
62978;BME280;49073;42.352;23.808;2023-06-14T05:42:22;94500.75;;;17.49;100.00
62978;BME280;49073;42.352;23.808;2023-06-14T05:45:22;94502.13;;;17.60;100.00
62978;BME280;49073;42.352;23.808;2023-06-14T05:48:23;94506.25;;;17.34;100.00
62978;BME280;49073;42.352;23.808;2023-06-14T05:51:23;94503.19;;;17.32;100.00
62978;BME280;49073;42.352;23.808;2023-06-14T05:54:25;94515.13;;;17.31;100.00
62978;BME280;49073;42.352;23.808;2023-06-14T05:57:26;94506.25;;;17.34;100.00
62978;BME280;49073;42.352;23.808;2023-06-14T06:00:26;94502.84;;;17.30;100.00
62978;BME280;49073;42.352;23.808;2023-06-14T06:03:27;94504.31;;;17.38;100.00
62978;BME280;49073;42.352;23.808;2023-06-14T06:06:29;94510.44;;;17.39;100.00
62978;BME280;49073;42.352;23.808;2023-06-14T06:09:30;94502.22;;;17.53;100.00
62978;BME280;49073;42.352;23.808;2023-06-14T06:12:31;94501.75;;;17.58;100.00
62978;BME280;49073;42.352;23.808;2023-06-14T06:15:32;94507.38;;;17.75;100.00
62978;BME280;49073;42.352;23.808;2023-06-14T06:18:34;94511.78;;;17.58;100.00
62978;BME280;49073;42.352;23.808;2023-06-14T06:21:34;94516.41;;;17.57;100.00
62978;BME280;49073;42.352;23.808;2023-06-14T06:24:35;94516.22;;;17.37;100.00
62978;BME280;49073;42.352;23.808;2023-06-14T06:27:36;94514.22;;;17.45;100.00
62978;BME280;49073;42.352;23.808;2023-06-14T06:30:40;94524.84;;;17.59;100.00
62978;BME280;49073;42.352;23.808;2023-06-14T06:33:41;94526.00;;;17.58;100.00
62978;BME280;49073;42.352;23.808;2023-06-14T06:36:41;94530.56;;;17.65;100.00
62978;BME280;49073;42.352;23.808;2023-06-14T06:39:42;94530.53;;;17.69;100.00
62978;BME280;49073;42.352;23.808;2023-06-14T06:42:43;94528.75;;;17.89;98.35
62978;BME280;49073;42.352;23.808;2023-06-14T06:45:44;94538.56;;;18.07;97.19
62978;BME280;49073;42.352;23.808;2023-06-14T06:48:44;94527.44;;;18.32;94.46
62978;BME280;49073;42.352;23.808;2023-06-14T06:52:02;94532.47;;;18.30;95.80
62978;BME280;49073;42.352;23.808;2023-06-14T06:55:03;94534.34;;;18.34;95.29
62978;BME280;49073;42.352;23.808;2023-06-14T06:58:05;94532.47;;;18.30;96.65
62978;BME280;49073;42.352;23.808;2023-06-14T07:01:05;94530.09;;;18.36;96.80
62978;BME280;49073;42.352;23.808;2023-06-14T07:04:06;94531.63;;;18.37;94.92
62978;BME280;49073;42.352;23.808;2023-06-14T07:07:07;94526.84;;;18.72;97.04
62978;BME280;49073;42.352;23.808;2023-06-14T07:10:09;94535.91;;;18.86;95.67
62978;BME280;49073;42.352;23.808;2023-06-14T07:13:10;94536.25;;;18.88;91.91
62978;BME280;49073;42.352;23.808;2023-06-14T07:16:12;94535.50;;;19.11;93.03
62978;BME280;49073;42.352;23.808;2023-06-14T07:19:12;94535.28;;;19.26;91.93
62978;BME280;49073;42.352;23.808;2023-06-14T07:22:14;94539.69;;;19.16;88.19
62978;BME280;49073;42.352;23.808;2023-06-14T07:25:14;94539.06;;;19.28;88.18
62978;BME280;49073;42.352;23.808;2023-06-14T07:28:16;94540.25;;;19.27;87.64
62978;BME280;49073;42.352;23.808;2023-06-14T07:31:17;94532.69;;;19.18;86.27
62978;BME280;49073;42.352;23.808;2023-06-14T07:34:19;94537.03;;;19.36;89.04
62978;BME280;49073;42.352;23.808;2023-06-14T07:37:20;94536.34;;;19.72;87.48
62978;BME280;49073;42.352;23.808;2023-06-14T07:40:20;94539.84;;;19.93;87.96
62978;BME280;49073;42.352;23.808;2023-06-14T07:43:21;94542.88;;;19.95;83.67
62978;BME280;49073;42.352;23.808;2023-06-14T07:46:22;94525.88;;;19.95;82.91
62978;BME280;49073;42.352;23.808;2023-06-14T07:49:23;94528.03;;;20.03;84.10
62978;BME280;49073;42.352;23.808;2023-06-14T07:52:23;94530.69;;;20.07;83.05
62978;BME280;49073;42.352;23.808;2023-06-14T07:55:24;94530.59;;;20.11;83.56
62978;BME280;49073;42.352;23.808;2023-06-14T07:58:25;94540.72;;;20.06;82.42
62978;BME280;49073;42.352;23.808;2023-06-14T08:01:26;94529.16;;;20.06;82.29
62978;BME280;49073;42.352;23.808;2023-06-14T08:04:28;94533.16;;;19.98;82.44
62978;BME280;49073;42.352;23.808;2023-06-14T08:07:29;94539.00;;;19.96;84.92
62978;BME280;49073;42.352;23.808;2023-06-14T08:10:30;94546.19;;;20.03;84.64
62978;BME280;49073;42.352;23.808;2023-06-14T08:13:30;94548.81;;;20.27;84.62
62978;BME280;49073;42.352;23.808;2023-06-14T08:16:31;94548.59;;;20.38;81.70
62978;BME280;49073;42.352;23.808;2023-06-14T08:19:31;94555.53;;;20.39;79.45
62978;BME280;49073;42.352;23.808;2023-06-14T08:22:32;94559.63;;;20.27;78.83
62978;BME280;49073;42.352;23.808;2023-06-14T08:25:34;94561.38;;;20.17;80.83
62978;BME280;49073;42.352;23.808;2023-06-14T08:28:35;94557.22;;;20.12;83.58
62978;BME280;49073;42.352;23.808;2023-06-14T08:31:36;94564.88;;;20.34;82.87
62978;BME280;49073;42.352;23.808;2023-06-14T08:34:36;94557.28;;;20.29;78.86
62978;BME280;49073;42.352;23.808;2023-06-14T08:37:40;94560.66;;;20.33;81.83
62978;BME280;49073;42.352;23.808;2023-06-14T08:40:45;94556.91;;;20.63;83.69
62978;BME280;49073;42.352;23.808;2023-06-14T08:43:48;94567.66;;;20.67;81.90
62978;BME280;49073;42.352;23.808;2023-06-14T08:46:50;94553.06;;;20.44;79.20
62978;BME280;49073;42.352;23.808;2023-06-14T08:49:53;94546.81;;;20.47;79.82
62978;BME280;49073;42.352;23.808;2023-06-14T08:52:58;94555.78;;;20.61;80.32
62978;BME280;49073;42.352;23.808;2023-06-14T08:56:02;94548.03;;;20.63;80.10
62978;BME280;49073;42.352;23.808;2023-06-14T08:59:05;94546.69;;;20.71;80.38
62978;BME280;49073;42.352;23.808;2023-06-14T09:02:06;94551.53;;;20.97;80.72
62978;BME280;49073;42.352;23.808;2023-06-14T09:05:07;94550.00;;;20.96;78.72
62978;BME280;49073;42.352;23.808;2023-06-14T09:08:08;94540.69;;;20.97;77.48
62978;BME280;49073;42.352;23.808;2023-06-14T09:11:11;94544.31;;;21.23;79.28
62978;BME280;49073;42.352;23.808;2023-06-14T09:14:14;94548.88;;;21.26;74.38
62978;BME280;49073;42.352;23.808;2023-06-14T09:17:15;94548.50;;;21.41;76.23
62978;BME280;49073;42.352;23.808;2023-06-14T09:20:15;94545.88;;;21.37;75.94
62978;BME280;49073;42.352;23.808;2023-06-14T09:23:20;94549.72;;;21.69;75.86
62978;BME280;49073;42.352;23.808;2023-06-14T09:26:22;94541.75;;;21.62;72.17
62978;BME280;49073;42.352;23.808;2023-06-14T09:29:24;94528.22;;;21.45;72.29
62978;BME280;49073;42.352;23.808;2023-06-14T09:32:25;94531.47;;;21.40;74.54
62978;BME280;49073;42.352;23.808;2023-06-14T09:35:25;94525.50;;;21.32;73.94
62978;BME280;49073;42.352;23.808;2023-06-14T09:38:28;94520.34;;;21.21;74.04
62978;BME280;49073;42.352;23.808;2023-06-14T09:41:36;94526.75;;;21.57;70.61
62978;BME280;49073;42.352;23.808;2023-06-14T09:44:37;94528.69;;;21.73;70.69
62978;BME280;49073;42.352;23.808;2023-06-14T09:47:49;94517.84;;;21.73;71.15
62978;BME280;49073;42.352;23.808;2023-06-14T09:50:55;94517.34;;;21.62;73.65
62978;BME280;49073;42.352;23.808;2023-06-14T09:54:00;94510.72;;;21.92;74.35
62978;BME280;49073;42.352;23.808;2023-06-14T09:57:02;94512.72;;;22.31;71.50
62978;BME280;49073;42.352;23.808;2023-06-14T10:00:04;94507.81;;;22.00;72.67
62978;BME280;49073;42.352;23.808;2023-06-14T10:03:17;94506.91;;;22.45;73.97
62978;BME280;49073;42.352;23.808;2023-06-14T10:06:20;94506.22;;;22.67;69.92
62978;BME280;49073;42.352;23.808;2023-06-14T10:09:24;94505.56;;;22.50;73.03
62978;BME280;49073;42.352;23.808;2023-06-14T10:12:26;94506.53;;;22.56;73.01
62978;BME280;49073;42.352;23.808;2023-06-14T10:15:32;94513.84;;;22.46;74.38
62978;BME280;49073;42.352;23.808;2023-06-14T10:22:06;94516.88;;;22.48;74.63
62978;BME280;49073;42.352;23.808;2023-06-14T10:25:12;94512.28;;;22.71;73.49
62978;BME280;49073;42.352;23.808;2023-06-14T10:31:14;94507.91;;;22.87;71.41
62978;BME280;49073;42.352;23.808;2023-06-14T10:34:28;94502.44;;;23.13;71.63
62978;BME280;49073;42.352;23.808;2023-06-14T10:37:29;94497.94;;;23.32;68.20
62978;BME280;49073;42.352;23.808;2023-06-14T10:40:30;94493.78;;;23.40;68.76
62978;BME280;49073;42.352;23.808;2023-06-14T10:43:31;94509.00;;;22.89;70.99
62978;BME280;49073;42.352;23.808;2023-06-14T10:46:31;94513.34;;;22.87;72.22
62978;BME280;49073;42.352;23.808;2023-06-14T10:49:43;94503.00;;;23.07;70.96
62978;BME280;49073;42.352;23.808;2023-06-14T10:52:44;94495.09;;;23.35;71.05
62978;BME280;49073;42.352;23.808;2023-06-14T10:55:46;94506.81;;;23.67;68.40
62978;BME280;49073;42.352;23.808;2023-06-14T10:58:47;94480.22;;;23.72;67.65
62978;BME280;49073;42.352;23.808;2023-06-14T11:05:08;94488.19;;;23.44;67.25
62978;BME280;49073;42.352;23.808;2023-06-14T11:11:22;94482.13;;;23.62;64.67
62978;BME280;49073;42.352;23.808;2023-06-14T11:14:24;94489.84;;;23.41;68.19
62978;BME280;49073;42.352;23.808;2023-06-14T11:17:25;94489.56;;;23.26;67.96
62978;BME280;49073;42.352;23.808;2023-06-14T11:20:27;94481.81;;;23.37;66.79
62978;BME280;49073;42.352;23.808;2023-06-14T11:23:29;94482.28;;;23.58;66.41
62978;BME280;49073;42.352;23.808;2023-06-14T11:26:31;94479.34;;;23.30;65.36
62978;BME280;49073;42.352;23.808;2023-06-14T11:29:33;94477.38;;;23.53;65.79
62978;BME280;49073;42.352;23.808;2023-06-14T11:32:34;94466.06;;;23.77;63.40
62978;BME280;49073;42.352;23.808;2023-06-14T11:35:34;94469.25;;;24.07;62.84
62978;BME280;49073;42.352;23.808;2023-06-14T11:38:40;94473.00;;;24.00;63.77
62978;BME280;49073;42.352;23.808;2023-06-14T11:41:42;94473.16;;;24.06;64.64
62978;BME280;49073;42.352;23.808;2023-06-14T11:44:46;94467.47;;;23.59;64.28
62978;BME280;49073;42.352;23.808;2023-06-14T11:47:47;94458.53;;;23.59;62.60
62978;BME280;49073;42.352;23.808;2023-06-14T11:50:50;94456.81;;;23.74;63.95
62978;BME280;49073;42.352;23.808;2023-06-14T11:53:51;94458.13;;;24.23;63.17
62978;BME280;49073;42.352;23.808;2023-06-14T11:56:52;94454.16;;;24.15;59.93
62978;BME280;49073;42.352;23.808;2023-06-14T11:59:54;94453.38;;;24.05;61.47
62978;BME280;49073;42.352;23.808;2023-06-14T12:02:56;94438.88;;;23.86;65.32
62978;BME280;49073;42.352;23.808;2023-06-14T12:06:06;94432.59;;;23.67;65.32
62978;BME280;49073;42.352;23.808;2023-06-14T12:09:10;94429.88;;;23.98;64.63
62978;BME280;49073;42.352;23.808;2023-06-14T12:12:17;94432.13;;;24.32;63.00
62978;BME280;49073;42.352;23.808;2023-06-14T12:15:17;94428.13;;;24.14;58.61
62978;BME280;49073;42.352;23.808;2023-06-14T12:18:18;94436.69;;;24.35;61.33
62978;BME280;49073;42.352;23.808;2023-06-14T12:21:22;94437.75;;;24.37;59.03
62978;BME280;49073;42.352;23.808;2023-06-14T12:24:27;94428.34;;;23.97;61.39
62978;BME280;49073;42.352;23.808;2023-06-14T12:27:29;94421.75;;;23.76;62.89
62978;BME280;49073;42.352;23.808;2023-06-14T12:30:30;94425.09;;;24.12;60.80
62978;BME280;49073;42.352;23.808;2023-06-14T12:33:30;94417.81;;;24.59;57.87
62978;BME280;49073;42.352;23.808;2023-06-14T12:36:31;94416.06;;;24.93;56.52
62978;BME280;49073;42.352;23.808;2023-06-14T12:39:32;94420.00;;;24.83;57.49
62978;BME280;49073;42.352;23.808;2023-06-14T12:42:33;94426.50;;;24.76;58.92
62978;BME280;49073;42.352;23.808;2023-06-14T12:45:33;94419.97;;;24.14;58.12
62978;BME280;49073;42.352;23.808;2023-06-14T12:48:34;94424.44;;;23.67;61.78
62978;BME280;49073;42.352;23.808;2023-06-14T12:51:36;94428.16;;;23.16;62.44
62978;BME280;49073;42.352;23.808;2023-06-14T12:54:37;94423.28;;;23.10;64.27
62978;BME280;49073;42.352;23.808;2023-06-14T12:57:39;94412.88;;;22.96;64.51
62978;BME280;49073;42.352;23.808;2023-06-14T13:00:40;94404.50;;;23.03;64.67
62978;BME280;49073;42.352;23.808;2023-06-14T13:03:41;94411.44;;;23.71;65.45
62978;BME280;49073;42.352;23.808;2023-06-14T13:06:41;94399.19;;;23.98;62.53
62978;BME280;49073;42.352;23.808;2023-06-14T13:09:42;94399.38;;;24.13;61.23
62978;BME280;49073;42.352;23.808;2023-06-14T13:12:43;94402.41;;;24.15;62.52
62978;BME280;49073;42.352;23.808;2023-06-14T13:15:44;94391.63;;;24.52;61.97
62978;BME280;49073;42.352;23.808;2023-06-14T13:18:46;94396.94;;;24.06;61.29
62978;BME280;49073;42.352;23.808;2023-06-14T13:21:47;94391.91;;;23.95;61.73
62978;BME280;49073;42.352;23.808;2023-06-14T13:24:48;94393.38;;;23.55;62.64
62978;BME280;49073;42.352;23.808;2023-06-14T13:27:49;94392.63;;;23.10;62.88
62978;BME280;49073;42.352;23.808;2023-06-14T13:30:50;94395.63;;;22.90;64.23
62978;BME280;49073;42.352;23.808;2023-06-14T13:33:51;94394.75;;;22.71;64.08
62978;BME280;49073;42.352;23.808;2023-06-14T13:36:53;94397.09;;;22.81;64.67
62978;BME280;49073;42.352;23.808;2023-06-14T13:39:54;94391.41;;;22.89;62.75
62978;BME280;49073;42.352;23.808;2023-06-14T13:42:55;94394.75;;;22.71;64.35
62978;BME280;49073;42.352;23.808;2023-06-14T13:45:56;94396.66;;;22.83;65.42
62978;BME280;49073;42.352;23.808;2023-06-14T13:48:59;94396.44;;;22.77;64.37
62978;BME280;49073;42.352;23.808;2023-06-14T13:52:01;94391.91;;;22.74;65.61
62978;BME280;49073;42.352;23.808;2023-06-14T13:55:03;94404.13;;;22.44;64.87
62978;BME280;49073;42.352;23.808;2023-06-14T13:58:03;94405.53;;;22.35;65.20
62978;BME280;49073;42.352;23.808;2023-06-14T14:01:04;94410.09;;;22.51;65.87
62978;BME280;49073;42.352;23.808;2023-06-14T14:04:05;94413.13;;;22.41;63.36
62978;BME280;49073;42.352;23.808;2023-06-14T14:07:06;94413.22;;;22.37;64.96
62978;BME280;49073;42.352;23.808;2023-06-14T14:10:07;94412.03;;;22.38;64.48
62978;BME280;49073;42.352;23.808;2023-06-14T14:13:09;94414.25;;;22.30;64.99
62978;BME280;49073;42.352;23.808;2023-06-14T14:16:09;94418.56;;;22.28;65.94
62978;BME280;49073;42.352;23.808;2023-06-14T14:19:10;94420.53;;;22.27;66.28
62978;BME280;49073;42.352;23.808;2023-06-14T14:22:11;94422.56;;;22.36;68.02
62978;BME280;49073;42.352;23.808;2023-06-14T14:25:11;94429.47;;;22.15;65.70
62978;BME280;49073;42.352;23.808;2023-06-14T14:28:12;94432.91;;;22.02;66.82
62978;BME280;49073;42.352;23.808;2023-06-14T14:31:13;94430.75;;;22.10;69.48
62978;BME280;49073;42.352;23.808;2023-06-14T14:34:14;94432.25;;;22.11;71.46
62978;BME280;49073;42.352;23.808;2023-06-14T14:37:16;94441.16;;;21.99;76.02
62978;BME280;49073;42.352;23.808;2023-06-14T14:40:16;94446.50;;;21.89;76.34
62978;BME280;49073;42.352;23.808;2023-06-14T14:43:17;94438.25;;;21.80;78.53
62978;BME280;49073;42.352;23.808;2023-06-14T14:46:18;94441.72;;;21.93;82.94
62978;BME280;49073;42.352;23.808;2023-06-14T14:49:18;94444.31;;;21.97;82.39
62978;BME280;49073;42.352;23.808;2023-06-14T14:52:19;94435.19;;;21.91;80.46
62978;BME280;49073;42.352;23.808;2023-06-14T14:55:20;94425.19;;;21.75;81.07
62978;BME280;49073;42.352;23.808;2023-06-14T14:58:21;94425.66;;;21.86;84.59
62978;BME280;49073;42.352;23.808;2023-06-14T15:01:21;94432.91;;;21.89;87.57
62978;BME280;49073;42.352;23.808;2023-06-14T15:04:22;94424.69;;;21.80;87.77
62978;BME280;49073;42.352;23.808;2023-06-14T15:07:22;94431.38;;;21.75;88.52
62978;BME280;49073;42.352;23.808;2023-06-14T15:10:23;94422.88;;;21.60;84.10
62978;BME280;49073;42.352;23.808;2023-06-14T15:13:24;94421.72;;;21.32;83.52
62978;BME280;49073;42.352;23.808;2023-06-14T15:16:25;94421.50;;;21.39;85.77
62978;BME280;49073;42.352;23.808;2023-06-14T15:19:25;94416.50;;;20.95;83.94
62978;BME280;49073;42.352;23.808;2023-06-14T15:22:26;94414.47;;;20.99;83.75
62978;BME280;49073;42.352;23.808;2023-06-14T15:25:29;94415.03;;;21.07;88.16
62978;BME280;49073;42.352;23.808;2023-06-14T15:28:32;94411.34;;;21.14;87.76
62978;BME280;49073;42.352;23.808;2023-06-14T15:31:33;94415.44;;;21.05;86.51
62978;BME280;49073;42.352;23.808;2023-06-14T15:34:33;94418.69;;;21.00;86.14
62978;BME280;49073;42.352;23.808;2023-06-14T15:37:34;94418.88;;;20.93;86.73
62978;BME280;49073;42.352;23.808;2023-06-14T15:40:34;94419.94;;;20.83;85.99
62978;BME280;49073;42.352;23.808;2023-06-14T15:43:35;94426.34;;;20.89;87.18
62978;BME280;49073;42.352;23.808;2023-06-14T15:46:35;94423.53;;;20.76;85.43
62978;BME280;49073;42.352;23.808;2023-06-14T15:49:36;94425.69;;;20.68;85.01
62978;BME280;49073;42.352;23.808;2023-06-14T15:52:38;94435.50;;;20.78;86.23
62978;BME280;49073;42.352;23.808;2023-06-14T15:55:38;94437.78;;;20.80;86.28
62978;BME280;49073;42.352;23.808;2023-06-14T15:58:39;94440.56;;;20.76;87.06
62978;BME280;49073;42.352;23.808;2023-06-14T16:01:39;94443.44;;;20.86;86.49
62978;BME280;49073;42.352;23.808;2023-06-14T16:04:40;94454.69;;;20.68;85.73
62978;BME280;49073;42.352;23.808;2023-06-14T16:07:41;94456.81;;;20.93;85.17